createdAt,value
2023-03-12T00:01:21.062Z,11.05
2023-03-12T00:06:18.768Z,11.32
2023-03-12T00:11:18.320Z,9.77
2023-03-12T00:16:15.845Z,9.48
2023-03-12T00:21:12.334Z,10.00
2023-03-12T00:26:12.148Z,9.93
2023-03-12T00:31:27.463Z,8.80
2023-03-12T00:36:26.986Z,9.00
2023-03-12T00:41:24.554Z,9.70
2023-03-12T00:46:21.981Z,8.40
2023-03-12T00:51:19.157Z,9.85
2023-03-12T00:56:15.622Z,9.60
2023-03-12T01:01:12.499Z,8.93
2023-03-12T01:06:09.334Z,9.10
2023-03-12T01:11:05.806Z,8.63
2023-03-12T01:16:02.404Z,10.25
2023-03-12T01:20:59.339Z,10.77
2023-03-12T01:25:55.841Z,9.88
2023-03-12T01:30:52.511Z,10.65
2023-03-12T01:35:49.066Z,10.25
2023-03-12T01:40:45.609Z,11.35
2023-03-12T01:46:01.075Z,12.40
2023-03-12T01:50:59.480Z,11.82
2023-03-12T01:55:57.311Z,10.82
2023-03-12T02:00:54.785Z,12.30
2023-03-12T02:06:04.639Z,11.52
2023-03-12T02:11:01.042Z,10.45
2023-03-12T02:15:57.503Z,12.00
2023-03-12T02:21:18.800Z,10.25
2023-03-12T02:26:16.509Z,11.18
2023-03-12T02:31:17.628Z,10.48
2023-03-12T02:36:14.243Z,10.82
2023-03-12T02:41:22.456Z,11.82
2023-03-12T02:46:19.055Z,10.57
2023-03-12T02:51:15.537Z,11.07
2023-03-12T02:56:12.053Z,13.77
2023-03-12T03:01:08.462Z,13.13
2023-03-12T03:06:05.078Z,12.07
2023-03-12T03:11:02.980Z,10.60
2023-03-12T03:16:01.932Z,10.13
2023-03-12T03:21:04.970Z,10.77
2023-03-12T03:26:01.605Z,10.70
2023-03-12T03:31:01.311Z,10.18
2023-03-12T03:35:59.565Z,10.35
2023-03-12T03:40:56.110Z,11.00
2023-03-12T03:46:00.269Z,9.02
2023-03-12T03:51:01.248Z,9.63
2023-03-12T03:55:57.729Z,9.40
2023-03-12T04:00:54.250Z,10.00
2023-03-12T04:05:55.987Z,9.70
2023-03-12T04:10:52.651Z,10.88
2023-03-12T04:15:51.743Z,10.55
2023-03-12T04:20:48.274Z,10.02
2023-03-12T04:25:44.643Z,8.40
2023-03-12T04:30:41.098Z,9.70
2023-03-12T04:35:37.560Z,9.77
2023-03-12T04:40:34.173Z,9.93
2023-03-12T04:45:30.604Z,10.43
2023-03-12T04:50:27.029Z,11.55
2023-03-12T04:55:23.513Z,10.18
2023-03-12T05:00:20.102Z,10.27
2023-03-12T05:05:16.494Z,11.27
2023-03-12T05:10:12.984Z,10.65
2023-03-12T05:15:09.871Z,11.77
2023-03-12T05:20:06.704Z,11.77
2023-03-12T05:25:03.830Z,10.32
2023-03-12T05:30:00.224Z,12.85
2023-03-12T05:34:56.615Z,11.55
2023-03-12T05:39:54.567Z,13.27
2023-03-12T05:44:51.433Z,10.93
2023-03-12T05:49:47.821Z,10.57
2023-03-12T05:54:44.190Z,10.98
2023-03-12T05:59:40.563Z,11.43
2023-03-12T06:04:36.978Z,10.45
2023-03-12T06:09:33.450Z,11.10
2023-03-12T06:14:29.987Z,11.00
2023-03-12T06:19:26.434Z,11.48
2023-03-12T06:24:22.838Z,11.00
2023-03-12T06:29:19.267Z,11.02
2023-03-12T06:34:16.789Z,11.30
2023-03-12T06:39:13.284Z,10.73
2023-03-12T06:44:10.820Z,10.98
2023-03-12T06:49:07.457Z,10.18
2023-03-12T06:54:04.352Z,10.52
2023-03-12T06:59:00.845Z,10.35
2023-03-12T07:03:57.294Z,10.15
2023-03-12T07:08:53.730Z,10.60
2023-03-12T07:13:51.478Z,10.07
2023-03-12T07:18:48.195Z,9.30
2023-03-12T07:23:44.576Z,9.27
2023-03-12T07:28:41.559Z,9.80
2023-03-12T07:33:38.828Z,9.02
2023-03-12T07:38:35.309Z,9.98
2023-03-12T07:43:31.955Z,8.77
2023-03-12T07:48:28.493Z,9.27
2023-03-12T07:53:24.928Z,8.30
2023-03-12T07:58:21.453Z,8.80
2023-03-12T08:03:18.158Z,8.05
2023-03-12T08:08:14.728Z,8.30
2023-03-12T08:13:11.231Z,8.52
2023-03-12T08:18:07.770Z,8.23
2023-03-12T08:23:04.203Z,7.55
2023-03-12T08:28:00.588Z,7.38
2023-03-12T08:32:58.083Z,7.75
2023-03-12T08:37:56.788Z,7.22
2023-03-12T08:42:53.256Z,7.50
2023-03-12T08:47:50.235Z,6.68
2023-03-12T08:52:46.629Z,6.72
2023-03-12T08:57:43.407Z,7.20
2023-03-12T09:02:39.974Z,6.18
2023-03-12T09:07:36.588Z,7.35
2023-03-12T09:12:33.126Z,5.80
2023-03-12T09:17:30.457Z,6.85
2023-03-12T09:22:29.429Z,6.85
2023-03-12T09:27:25.960Z,6.50
2023-03-12T09:32:23.162Z,6.93
2023-03-12T09:37:23.590Z,6.35
2023-03-12T09:42:46.279Z,6.28
2023-03-12T09:47:55.546Z,5.68
2023-03-12T09:53:25.969Z,5.63
2023-03-12T09:58:30.747Z,6.47
2023-03-12T10:03:46.546Z,6.10
2023-03-12T10:08:56.407Z,6.15
2023-03-12T10:14:24.066Z,6.03
2023-03-12T10:19:35.705Z,5.72
2023-03-12T10:24:52.802Z,6.25
2023-03-12T10:29:57.921Z,6.00
2023-03-12T10:35:04.240Z,6.25
2023-03-12T10:40:00.873Z,6.95
2023-03-12T10:45:10.846Z,6.25
2023-03-12T10:50:16.313Z,6.03
2023-03-12T10:55:22.064Z,6.03
2023-03-12T11:00:30.431Z,5.80
2023-03-12T11:05:29.651Z,6.72
2023-03-12T11:10:39.102Z,6.30
2023-03-12T11:15:41.484Z,6.10
2023-03-12T11:20:37.917Z,7.93
2023-03-12T11:25:34.371Z,6.38
2023-03-12T11:30:39.208Z,6.38
2023-03-12T11:36:07.007Z,6.13
2023-03-12T11:41:28.194Z,6.93
2023-03-12T11:46:43.784Z,6.32
2023-03-12T11:51:58.419Z,6.78
2023-03-12T11:57:40.692Z,6.35
2023-03-12T12:02:48.022Z,5.55
2023-03-12T12:08:03.019Z,5.65
2023-03-12T12:13:08.747Z,6.07
2023-03-12T12:18:23.556Z,5.47
2023-03-12T12:23:30.737Z,6.63
2023-03-12T12:28:36.269Z,4.88
2023-03-12T12:33:35.316Z,5.20
2023-03-12T12:38:55.117Z,4.78
2023-03-12T12:44:14.142Z,4.90
2023-03-12T12:49:24.386Z,5.63
2023-03-12T12:54:46.248Z,4.53
2023-03-12T13:00:07.299Z,5.45
2023-03-12T13:05:03.918Z,4.75
2023-03-12T13:10:06.849Z,4.28
2023-03-12T13:15:29.526Z,4.50
2023-03-12T13:20:37.414Z,4.53
2023-03-12T13:26:01.451Z,5.07
2023-03-12T13:31:23.697Z,4.80
2023-03-12T13:36:28.342Z,4.00
2023-03-12T13:41:31.921Z,5.18
2023-03-12T13:46:35.965Z,4.97
2023-03-12T13:51:32.877Z,5.30
2023-03-12T13:56:32.372Z,5.13
2023-03-12T14:01:38.047Z,4.72
2023-03-12T14:07:06.309Z,4.68
2023-03-12T14:12:21.740Z,5.10
2023-03-12T14:17:24.274Z,3.80
2023-03-12T14:27:30.054Z,4.55
2023-03-12T14:32:33.415Z,4.60
2023-03-12T14:37:38.288Z,4.78
2023-03-12T14:42:36.210Z,5.18
2023-03-12T14:47:58.780Z,5.28
2023-03-12T14:53:10.395Z,5.00
2023-03-12T14:58:17.163Z,4.80
2023-03-12T15:03:16.588Z,5.28
2023-03-12T15:08:13.710Z,5.68
2023-03-12T15:13:12.957Z,6.28
2023-03-12T15:18:19.585Z,6.35
2023-03-12T15:23:18.503Z,7.22
2023-03-12T15:28:14.850Z,7.38
2023-03-12T15:33:24.076Z,7.28
2023-03-12T15:38:23.184Z,7.07
2023-03-12T15:43:21.626Z,6.88
2023-03-12T15:48:32.178Z,7.22
2023-03-12T15:53:32.279Z,8.07
2023-03-12T15:58:32.076Z,8.07
2023-03-12T16:03:28.482Z,8.00
2023-03-12T16:08:36.247Z,7.40
2023-03-12T16:13:33.098Z,7.53
2023-03-12T16:18:29.517Z,7.45
2023-03-12T16:23:26.184Z,8.13
2023-03-12T16:28:23.421Z,7.68
2023-03-12T16:33:22.755Z,7.57
2023-03-12T16:38:19.220Z,8.35
2023-03-12T16:43:19.546Z,8.27
2023-03-12T16:48:18.923Z,9.13
2023-03-12T16:53:16.377Z,8.30
2023-03-12T16:58:15.661Z,8.48
2023-03-12T17:03:19.339Z,8.30
2023-03-12T17:08:16.200Z,8.55
2023-03-12T17:13:19.410Z,10.07
2023-03-12T17:18:16.941Z,8.13
2023-03-12T17:23:14.103Z,8.80
2023-03-12T17:28:11.175Z,7.90
2023-03-12T17:33:12.841Z,7.82
2023-03-12T17:38:10.210Z,8.27
2023-03-12T17:43:06.774Z,9.45
2023-03-12T17:48:04.241Z,9.20
2023-03-12T17:53:00.898Z,10.15
2023-03-12T17:57:57.675Z,10.88
2023-03-12T18:02:57.229Z,9.80
2023-03-12T18:07:54.024Z,11.27
2023-03-12T18:12:50.956Z,11.50
2023-03-12T18:17:51.918Z,11.82
2023-03-12T18:22:48.612Z,13.60
2023-03-12T18:27:45.426Z,17.15
2023-03-12T18:32:41.937Z,14.50
2023-03-12T18:37:38.511Z,14.48
2023-03-12T18:42:34.914Z,14.27
2023-03-12T18:47:32.743Z,15.00
2023-03-12T18:52:29.133Z,17.73
2023-03-12T18:57:25.554Z,20.27
2023-03-12T19:02:23.715Z,21.33
2023-03-12T19:07:20.321Z,23.33
2023-03-12T19:12:16.695Z,25.10
2023-03-12T19:17:13.100Z,27.52
2023-03-12T19:22:09.597Z,28.23
2023-03-12T19:27:06.153Z,27.35
2023-03-12T19:32:02.797Z,29.70
2023-03-12T19:36:59.269Z,27.75
2023-03-12T19:41:59.080Z,29.80
2023-03-12T19:46:55.568Z,30.48
2023-03-12T19:51:51.998Z,28.00
2023-03-12T19:56:48.476Z,28.27
2023-03-12T20:01:44.920Z,27.02
2023-03-12T20:06:41.306Z,26.42
2023-03-12T20:11:37.869Z,28.40
2023-03-12T20:16:34.425Z,32.78
2023-03-12T20:21:30.940Z,30.75
2023-03-12T20:26:27.743Z,25.83
2023-03-12T20:31:24.259Z,32.25
2023-03-12T20:36:20.815Z,28.02
2023-03-12T20:41:17.584Z,28.05
2023-03-12T20:46:14.362Z,27.63
2023-03-12T20:51:10.842Z,24.52
2023-03-12T20:56:07.831Z,24.48
2023-03-12T21:01:05.511Z,24.05
2023-03-12T21:06:03.090Z,22.25
2023-03-12T21:10:59.688Z,18.10
2023-03-12T21:15:56.111Z,21.45
2023-03-12T21:20:52.483Z,17.52
2023-03-12T21:25:56.916Z,17.65
2023-03-12T21:30:53.429Z,17.25
2023-03-12T21:35:49.988Z,18.15
2023-03-12T21:40:46.467Z,14.82
2023-03-12T21:45:42.908Z,16.88
2023-03-12T21:50:39.297Z,16.02
2023-03-12T21:55:35.776Z,13.38
2023-03-12T22:00:32.409Z,15.27
2023-03-12T22:05:28.816Z,15.63
2023-03-12T22:10:25.253Z,15.23
2023-03-12T22:15:21.692Z,13.70
2023-03-12T22:20:18.143Z,15.38
2023-03-12T22:25:14.589Z,13.85
2023-03-12T22:30:13.090Z,14.85
2023-03-12T22:35:09.705Z,16.10
2023-03-12T22:40:07.161Z,14.32
2023-03-12T22:45:03.917Z,14.55
2023-03-12T22:50:00.386Z,14.38
2023-03-12T22:54:56.857Z,13.65
2023-03-12T22:59:53.295Z,16.02
2023-03-12T23:04:49.772Z,14.55
2023-03-12T23:09:47.383Z,14.43
2023-03-12T23:14:43.947Z,13.50
2023-03-12T23:19:42.590Z,11.80
2023-03-12T23:24:39.219Z,11.93
2023-03-12T23:29:35.639Z,11.38
2023-03-12T23:34:33.844Z,10.32
2023-03-12T23:39:30.826Z,13.55
2023-03-12T23:44:27.261Z,9.98
2023-03-12T23:49:23.813Z,11.52
2023-03-12T23:54:20.191Z,10.55
2023-03-12T23:59:16.569Z,10.85
